CSH4941 ZSQD-ZSZS
Flight info
| Callsign | CSH4941 |
|---|---|
| Flight time | 1h 12m |
| Altitude | 35100 |
| Route | LATUX W108 MATNU W115 PINOT W13 PONAB |
| Aircraft | B38M/M-SDE2E3GHIJ1J3J4J5LM1ORWXYZ/LB1D1 |
Departure
| Time | 2026-04-14 09:31 |
|---|---|
| Airport | Qingdao Jiaodong International Airport (ZSQD) |
Arrival
| Time | 2026-04-14 10:43 |
|---|---|
| Airport | Zhoushan Putuoshan International Airport (ZSZS) |
| Time | Latitude | Longitude | Altitude | Speed | Heading |
|---|---|---|---|---|---|
| 2026-04-14 09:10 | 36.36169 | 120.08407 | 38 ft | 0 kts | 12° |
| 2026-04-14 09:22 | 36.36165 | 120.08406 | 38 ft | 2 kts | 12° |
| 2026-04-14 09:23 | 36.36147 | 120.08401 | 36 ft | 2 kts | 12° |
| 2026-04-14 09:23 | 36.36131 | 120.08398 | 39 ft | 3 kts | 353° |
| 2026-04-14 09:23 | 36.36117 | 120.08406 | 40 ft | 3 kts | 304° |
| 2026-04-14 09:23 | 36.36110 | 120.08427 | 40 ft | 2 kts | 282° |
| 2026-04-14 09:24 | 36.36109 | 120.08434 | 39 ft | 1 kts | 281° |
| 2026-04-14 09:26 | 36.36110 | 120.08423 | 40 ft | 6 kts | 281° |
| 2026-04-14 09:27 | 36.36131 | 120.08299 | 38 ft | 22 kts | 282° |
| 2026-04-14 09:27 | 36.36167 | 120.08090 | 38 ft | 27 kts | 282° |
| 2026-04-14 09:27 | 36.36144 | 120.07858 | 38 ft | 28 kts | 252° |
| 2026-04-14 09:27 | 36.36196 | 120.07741 | 38 ft | 19 kts | 343° |
| 2026-04-14 09:28 | 36.36330 | 120.07689 | 38 ft | 21 kts | 342° |
| 2026-04-14 09:28 | 36.36485 | 120.07628 | 41 ft | 25 kts | 342° |
| 2026-04-14 09:28 | 36.36658 | 120.07561 | 42 ft | 27 kts | 342° |
| 2026-04-14 09:28 | 36.36845 | 120.07487 | 38 ft | 27 kts | 342° |
| 2026-04-14 09:29 | 36.37023 | 120.07418 | 37 ft | 27 kts | 342° |
| 2026-04-14 09:29 | 36.37074 | 120.07331 | 35 ft | 11 kts | 248° |
| 2026-04-14 09:29 | 36.37050 | 120.07243 | 35 ft | 12 kts | 251° |
| 2026-04-14 09:29 | 36.36994 | 120.07210 | 36 ft | 10 kts | 165° |
| 2026-04-14 09:30 | 36.36987 | 120.07213 | 35 ft | 2 kts | 163° |
| 2026-04-14 09:30 | 36.36900 | 120.07246 | 39 ft | 41 kts | 162° |
| 2026-04-14 09:30 | 36.36389 | 120.07448 | 44 ft | 111 kts | 163° |
| 2026-04-14 09:30 | 36.35465 | 120.07815 | 73 ft | 162 kts | 162° |
| 2026-04-14 09:31 | 36.34360 | 120.08248 | 702 ft | 168 kts | 162° |
| 2026-04-14 09:31 | 36.33232 | 120.08689 | 1515 ft | 171 kts | 162° |
| 2026-04-14 09:31 | 36.32062 | 120.09158 | 2139 ft | 187 kts | 162° |
| 2026-04-14 09:31 | 36.30746 | 120.09672 | 2679 ft | 210 kts | 162° |
| 2026-04-14 09:32 | 36.29275 | 120.10248 | 3271 ft | 232 kts | 161° |
| 2026-04-14 09:32 | 36.27716 | 120.11019 | 3940 ft | 247 kts | 144° |
| 2026-04-14 09:32 | 36.26253 | 120.14808 | 5570 ft | 261 kts | 83° |
| 2026-04-14 09:33 | 36.26731 | 120.16968 | 6521 ft | 267 kts | 72° |
| 2026-04-14 09:33 | 36.27301 | 120.19223 | 7395 ft | 273 kts | 73° |
| 2026-04-14 09:33 | 36.27871 | 120.21496 | 8273 ft | 279 kts | 73° |
| 2026-04-14 09:33 | 36.28459 | 120.23820 | 9149 ft | 285 kts | 73° |
| 2026-04-14 09:34 | 36.29061 | 120.26184 | 10008 ft | 291 kts | 72° |
| 2026-04-14 09:34 | 36.29669 | 120.28567 | 10734 ft | 298 kts | 72° |
| 2026-04-14 09:34 | 36.30107 | 120.31126 | 11249 ft | 314 kts | 90° |
| 2026-04-14 09:34 | 36.29657 | 120.33829 | 11654 ft | 331 kts | 116° |
| 2026-04-14 09:35 | 36.28228 | 120.36105 | 12178 ft | 342 kts | 143° |
| 2026-04-14 09:35 | 36.26112 | 120.37472 | 12793 ft | 349 kts | 165° |
| 2026-04-14 09:35 | 36.23759 | 120.38285 | 13541 ft | 354 kts | 164° |
| 2026-04-14 09:35 | 36.21392 | 120.39211 | 14255 ft | 359 kts | 165° |
| 2026-04-14 09:36 | 36.18993 | 120.40144 | 15007 ft | 362 kts | 165° |
| 2026-04-14 09:36 | 36.16571 | 120.41085 | 15719 ft | 367 kts | 165° |
| 2026-04-14 09:36 | 36.14116 | 120.42038 | 16427 ft | 371 kts | 166° |
| 2026-04-14 09:36 | 36.11640 | 120.42998 | 17126 ft | 375 kts | 166° |
| 2026-04-14 09:37 | 36.09136 | 120.43969 | 17814 ft | 379 kts | 166° |
| 2026-04-14 09:37 | 36.06604 | 120.44950 | 18446 ft | 383 kts | 166° |
| 2026-04-14 09:37 | 36.04048 | 120.45939 | 19007 ft | 387 kts | 167° |
| 2026-04-14 09:37 | 36.01463 | 120.46939 | 19575 ft | 391 kts | 167° |
| 2026-04-14 09:38 | 35.98854 | 120.47947 | 20134 ft | 394 kts | 167° |
| 2026-04-14 09:38 | 35.96224 | 120.48979 | 20692 ft | 399 kts | 165° |
| 2026-04-14 09:38 | 35.93695 | 120.50384 | 21234 ft | 405 kts | 160° |
| 2026-04-14 09:38 | 35.91118 | 120.51829 | 21761 ft | 409 kts | 161° |
| 2026-04-14 09:39 | 35.88470 | 120.53282 | 22296 ft | 412 kts | 161° |
| 2026-04-14 09:39 | 35.85868 | 120.54696 | 22826 ft | 416 kts | 161° |
| 2026-04-14 09:39 | 35.83210 | 120.56133 | 23334 ft | 420 kts | 161° |
| 2026-04-14 09:39 | 35.80521 | 120.57583 | 23817 ft | 422 kts | 161° |
| 2026-04-14 09:40 | 35.77824 | 120.59036 | 24285 ft | 424 kts | 162° |
| 2026-04-14 09:40 | 35.75115 | 120.60495 | 24768 ft | 425 kts | 162° |
| 2026-04-14 09:40 | 35.72434 | 120.62074 | 25229 ft | 432 kts | 155° |
| 2026-04-14 09:40 | 35.69826 | 120.63911 | 25698 ft | 432 kts | 157° |
| 2026-04-14 09:41 | 35.67189 | 120.65708 | 26127 ft | 434 kts | 157° |
| 2026-04-14 09:41 | 35.64533 | 120.67498 | 26574 ft | 436 kts | 158° |
| 2026-04-14 09:41 | 35.61867 | 120.69286 | 27003 ft | 438 kts | 158° |
| 2026-04-14 09:41 | 35.59185 | 120.71080 | 27414 ft | 440 kts | 158° |
| 2026-04-14 09:42 | 35.56490 | 120.72881 | 27823 ft | 442 kts | 158° |
| 2026-04-14 09:42 | 35.53777 | 120.74693 | 28219 ft | 444 kts | 158° |
| 2026-04-14 09:42 | 35.51050 | 120.76512 | 28617 ft | 446 kts | 158° |
| 2026-04-14 09:42 | 35.48341 | 120.78277 | 28988 ft | 446 kts | 162° |
| 2026-04-14 09:43 | 35.45489 | 120.79722 | 29332 ft | 445 kts | 165° |
| 2026-04-14 09:43 | 35.42613 | 120.81164 | 29698 ft | 447 kts | 165° |
| 2026-04-14 09:43 | 35.39719 | 120.82604 | 30078 ft | 449 kts | 165° |
| 2026-04-14 09:43 | 35.36817 | 120.84043 | 30376 ft | 451 kts | 165° |
| 2026-04-14 09:44 | 35.33894 | 120.85490 | 30671 ft | 454 kts | 166° |
| 2026-04-14 09:44 | 35.30963 | 120.86940 | 30964 ft | 456 kts | 166° |
| 2026-04-14 09:44 | 35.28013 | 120.88398 | 31257 ft | 458 kts | 166° |
| 2026-04-14 09:44 | 35.25047 | 120.89863 | 31538 ft | 461 kts | 166° |
| 2026-04-14 09:45 | 35.22063 | 120.91335 | 31823 ft | 463 kts | 166° |
| 2026-04-14 09:45 | 35.19070 | 120.92811 | 32103 ft | 465 kts | 166° |
| 2026-04-14 09:45 | 35.16057 | 120.94298 | 32391 ft | 467 kts | 166° |
| 2026-04-14 09:45 | 35.13042 | 120.95800 | 32753 ft | 467 kts | 166° |
| 2026-04-14 09:46 | 35.10037 | 120.97295 | 33147 ft | 467 kts | 166° |
| 2026-04-14 09:46 | 35.07028 | 120.98790 | 33522 ft | 466 kts | 166° |
| 2026-04-14 09:46 | 35.04023 | 121.00282 | 33890 ft | 466 kts | 166° |
| 2026-04-14 09:46 | 35.01020 | 121.01771 | 34213 ft | 466 kts | 166° |
| 2026-04-14 09:47 | 34.98015 | 121.03260 | 34514 ft | 466 kts | 166° |
| 2026-04-14 09:47 | 34.96022 | 121.04247 | 34721 ft | 466 kts | 166° |
| 2026-04-14 09:47 | 34.93021 | 121.05732 | 35000 ft | 466 kts | 167° |
| 2026-04-14 09:48 | 34.87012 | 121.08705 | 35061 ft | 465 kts | 167° |
| 2026-04-14 09:48 | 34.81027 | 121.11659 | 35064 ft | 464 kts | 167° |
| 2026-04-14 09:49 | 34.75033 | 121.14613 | 35060 ft | 465 kts | 167° |
| 2026-04-14 09:49 | 34.69035 | 121.17564 | 35059 ft | 465 kts | 167° |
| 2026-04-14 09:50 | 34.63026 | 121.20517 | 35067 ft | 466 kts | 167° |
| 2026-04-14 09:50 | 34.57014 | 121.23466 | 35065 ft | 466 kts | 167° |
| 2026-04-14 09:51 | 34.50995 | 121.26414 | 35062 ft | 466 kts | 167° |
| 2026-04-14 09:51 | 34.45009 | 121.29341 | 35061 ft | 466 kts | 167° |
| 2026-04-14 09:52 | 34.38977 | 121.32287 | 35062 ft | 467 kts | 167° |
| 2026-04-14 09:52 | 34.32942 | 121.35229 | 35062 ft | 467 kts | 167° |
| 2026-04-14 09:53 | 34.26903 | 121.38167 | 35060 ft | 467 kts | 167° |
| 2026-04-14 09:53 | 34.20868 | 121.41101 | 35061 ft | 467 kts | 167° |
| 2026-04-14 09:54 | 34.14875 | 121.44008 | 35062 ft | 467 kts | 168° |
| 2026-04-14 09:54 | 34.08836 | 121.46934 | 35063 ft | 467 kts | 168° |
| 2026-04-14 09:55 | 34.02794 | 121.49857 | 35065 ft | 467 kts | 168° |
| 2026-04-14 09:55 | 33.96753 | 121.52775 | 35066 ft | 467 kts | 168° |
| 2026-04-14 09:55 | 33.93761 | 121.54222 | 35073 ft | 456 kts | 169° |
| 2026-04-14 09:56 | 33.90865 | 121.55622 | 35075 ft | 439 kts | 169° |
| 2026-04-14 09:56 | 33.85301 | 121.58295 | 35070 ft | 427 kts | 170° |
| 2026-04-14 09:57 | 33.79826 | 121.60928 | 35066 ft | 426 kts | 170° |
| 2026-04-14 09:57 | 33.74318 | 121.63574 | 35066 ft | 426 kts | 170° |
| 2026-04-14 09:58 | 33.68818 | 121.66252 | 35065 ft | 426 kts | 170° |
| 2026-04-14 09:58 | 33.63328 | 121.68935 | 35063 ft | 426 kts | 171° |
| 2026-04-14 09:59 | 33.57832 | 121.71616 | 35063 ft | 425 kts | 171° |
| 2026-04-14 09:59 | 33.52356 | 121.74292 | 35065 ft | 425 kts | 171° |
| 2026-04-14 10:00 | 33.46875 | 121.76969 | 35067 ft | 425 kts | 171° |
| 2026-04-14 10:00 | 33.41405 | 121.79637 | 35066 ft | 424 kts | 172° |
| 2026-04-14 10:01 | 33.35931 | 121.82304 | 35065 ft | 424 kts | 172° |
| 2026-04-14 10:01 | 33.30494 | 121.84948 | 35068 ft | 424 kts | 172° |
| 2026-04-14 10:02 | 33.25029 | 121.87603 | 35066 ft | 423 kts | 172° |
| 2026-04-14 10:02 | 33.19565 | 121.90254 | 35060 ft | 424 kts | 172° |
| 2026-04-14 10:03 | 33.14103 | 121.92901 | 35059 ft | 423 kts | 172° |
| 2026-04-14 10:03 | 33.08642 | 121.95542 | 35067 ft | 423 kts | 173° |
| 2026-04-14 10:04 | 33.03181 | 121.98181 | 35058 ft | 423 kts | 173° |
| 2026-04-14 10:04 | 32.97753 | 122.00800 | 35061 ft | 423 kts | 173° |
| 2026-04-14 10:05 | 32.92292 | 122.03431 | 35062 ft | 423 kts | 173° |
| 2026-04-14 10:05 | 32.86833 | 122.06059 | 35065 ft | 423 kts | 173° |
| 2026-04-14 10:06 | 32.81375 | 122.08681 | 35059 ft | 423 kts | 173° |
| 2026-04-14 10:06 | 32.75905 | 122.11307 | 35059 ft | 424 kts | 173° |
| 2026-04-14 10:07 | 32.70430 | 122.13931 | 35057 ft | 424 kts | 173° |
| 2026-04-14 10:07 | 32.64960 | 122.16549 | 35056 ft | 424 kts | 173° |
| 2026-04-14 10:08 | 32.59480 | 122.19169 | 35054 ft | 424 kts | 173° |
| 2026-04-14 10:08 | 32.54000 | 122.21786 | 35064 ft | 425 kts | 173° |
| 2026-04-14 10:09 | 32.48505 | 122.24406 | 35058 ft | 425 kts | 173° |
| 2026-04-14 10:09 | 32.43011 | 122.27021 | 35057 ft | 425 kts | 173° |
| 2026-04-14 10:10 | 32.37532 | 122.29627 | 35060 ft | 424 kts | 173° |
| 2026-04-14 10:10 | 32.32077 | 122.32217 | 35062 ft | 425 kts | 173° |
| 2026-04-14 10:11 | 32.26583 | 122.34823 | 35057 ft | 425 kts | 173° |
| 2026-04-14 10:11 | 32.21084 | 122.37428 | 35061 ft | 426 kts | 173° |
| 2026-04-14 10:12 | 32.15571 | 122.40036 | 35056 ft | 427 kts | 173° |
| 2026-04-14 10:12 | 32.10056 | 122.42641 | 35054 ft | 427 kts | 172° |
| 2026-04-14 10:13 | 32.04528 | 122.45249 | 35055 ft | 428 kts | 172° |
| 2026-04-14 10:13 | 31.98998 | 122.47855 | 35058 ft | 428 kts | 172° |
| 2026-04-14 10:14 | 31.93457 | 122.50462 | 35056 ft | 429 kts | 172° |
| 2026-04-14 10:14 | 31.87914 | 122.53068 | 35067 ft | 430 kts | 172° |
| 2026-04-14 10:15 | 31.82356 | 122.55677 | 35051 ft | 430 kts | 172° |
| 2026-04-14 10:15 | 31.76788 | 122.58288 | 35055 ft | 431 kts | 172° |
| 2026-04-14 10:16 | 31.71198 | 122.60846 | 35047 ft | 424 kts | 178° |
| 2026-04-14 10:16 | 31.68412 | 122.61367 | 35046 ft | 391 kts | 195° |
| 2026-04-14 10:16 | 31.65845 | 122.60965 | 35061 ft | 369 kts | 207° |
| 2026-04-14 10:16 | 31.63489 | 122.59946 | 35051 ft | 354 kts | 219° |
| 2026-04-14 10:17 | 31.61346 | 122.58558 | 35055 ft | 351 kts | 221° |
| 2026-04-14 10:17 | 31.57265 | 122.55486 | 35054 ft | 347 kts | 224° |
| 2026-04-14 10:18 | 31.51396 | 122.50546 | 35053 ft | 346 kts | 226° |
| 2026-04-14 10:18 | 31.47521 | 122.47191 | 35053 ft | 346 kts | 226° |
| 2026-04-14 10:19 | 31.45443 | 122.45701 | 35038 ft | 361 kts | 213° |
| 2026-04-14 10:19 | 31.42934 | 122.44972 | 35046 ft | 385 kts | 198° |
| 2026-04-14 10:19 | 31.37498 | 122.44607 | 35056 ft | 392 kts | 197° |
| 2026-04-14 10:20 | 31.32038 | 122.44253 | 35055 ft | 394 kts | 196° |
| 2026-04-14 10:20 | 31.26557 | 122.43937 | 35056 ft | 396 kts | 196° |
| 2026-04-14 10:21 | 31.21003 | 122.43623 | 35027 ft | 409 kts | 196° |
| 2026-04-14 10:21 | 31.18117 | 122.43457 | 34221 ft | 421 kts | 195° |
| 2026-04-14 10:21 | 31.15146 | 122.43290 | 33145 ft | 432 kts | 195° |
| 2026-04-14 10:22 | 31.12119 | 122.43123 | 32357 ft | 435 kts | 194° |
| 2026-04-14 10:22 | 31.09100 | 122.42956 | 31753 ft | 433 kts | 194° |
| 2026-04-14 10:22 | 31.06097 | 122.42788 | 31077 ft | 433 kts | 193° |
| 2026-04-14 10:22 | 31.03079 | 122.42618 | 30280 ft | 436 kts | 193° |
| 2026-04-14 10:23 | 31.00034 | 122.42446 | 29326 ft | 440 kts | 192° |
| 2026-04-14 10:23 | 30.96951 | 122.42270 | 28288 ft | 446 kts | 191° |
| 2026-04-14 10:23 | 30.93857 | 122.42095 | 27563 ft | 444 kts | 191° |
| 2026-04-14 10:23 | 30.90763 | 122.41920 | 26716 ft | 446 kts | 191° |
| 2026-04-14 10:24 | 30.87666 | 122.41745 | 25842 ft | 445 kts | 191° |
| 2026-04-14 10:24 | 30.84568 | 122.41569 | 24921 ft | 447 kts | 190° |
| 2026-04-14 10:24 | 30.81436 | 122.41391 | 23942 ft | 453 kts | 189° |
| 2026-04-14 10:24 | 30.78277 | 122.41213 | 22827 ft | 455 kts | 189° |
| 2026-04-14 10:25 | 30.75127 | 122.41035 | 21705 ft | 452 kts | 189° |
| 2026-04-14 10:25 | 30.72006 | 122.40859 | 20747 ft | 444 kts | 189° |
| 2026-04-14 10:25 | 30.68952 | 122.40687 | 19600 ft | 437 kts | 188° |
| 2026-04-14 10:25 | 30.65935 | 122.40517 | 18549 ft | 430 kts | 188° |
| 2026-04-14 10:26 | 30.62971 | 122.40349 | 17430 ft | 423 kts | 188° |
| 2026-04-14 10:26 | 30.60055 | 122.40185 | 16331 ft | 416 kts | 187° |
| 2026-04-14 10:26 | 30.57175 | 122.40033 | 15117 ft | 414 kts | 187° |
| 2026-04-14 10:26 | 30.54322 | 122.39882 | 14152 ft | 407 kts | 187° |
| 2026-04-14 10:27 | 30.51535 | 122.39735 | 13618 ft | 390 kts | 187° |
| 2026-04-14 10:27 | 30.48906 | 122.39596 | 13342 ft | 368 kts | 187° |
| 2026-04-14 10:27 | 30.46421 | 122.39464 | 13070 ft | 348 kts | 187° |
| 2026-04-14 10:27 | 30.44093 | 122.39341 | 12823 ft | 330 kts | 187° |
| 2026-04-14 10:28 | 30.41858 | 122.39223 | 12590 ft | 314 kts | 187° |
| 2026-04-14 10:28 | 30.39725 | 122.39110 | 12383 ft | 302 kts | 188° |
| 2026-04-14 10:28 | 30.37650 | 122.39000 | 12178 ft | 295 kts | 188° |
| 2026-04-14 10:28 | 30.35621 | 122.38893 | 11997 ft | 288 kts | 188° |
| 2026-04-14 10:29 | 30.33643 | 122.38789 | 11815 ft | 281 kts | 188° |
| 2026-04-14 10:29 | 30.31716 | 122.38687 | 11664 ft | 273 kts | 188° |
| 2026-04-14 10:29 | 30.29842 | 122.38588 | 11509 ft | 266 kts | 188° |
| 2026-04-14 10:29 | 30.27984 | 122.38490 | 11382 ft | 271 kts | 188° |
| 2026-04-14 10:30 | 30.26072 | 122.38389 | 11233 ft | 278 kts | 188° |
| 2026-04-14 10:30 | 30.24122 | 122.38531 | 11053 ft | 286 kts | 173° |
| 2026-04-14 10:30 | 30.22186 | 122.39076 | 10908 ft | 286 kts | 172° |
| 2026-04-14 10:30 | 30.20249 | 122.39598 | 10769 ft | 286 kts | 172° |
| 2026-04-14 10:31 | 30.18309 | 122.40117 | 10629 ft | 285 kts | 172° |
| 2026-04-14 10:31 | 30.16382 | 122.40632 | 10487 ft | 284 kts | 172° |
| 2026-04-14 10:31 | 30.14458 | 122.41145 | 10354 ft | 283 kts | 172° |
| 2026-04-14 10:31 | 30.12561 | 122.41651 | 10218 ft | 283 kts | 172° |
| 2026-04-14 10:32 | 30.10642 | 122.42162 | 10066 ft | 283 kts | 172° |
| 2026-04-14 10:32 | 30.08721 | 122.42673 | 9757 ft | 284 kts | 172° |
| 2026-04-14 10:32 | 30.06796 | 122.43186 | 9436 ft | 283 kts | 172° |
| 2026-04-14 10:32 | 30.04881 | 122.43696 | 9118 ft | 282 kts | 172° |
| 2026-04-14 10:33 | 30.02980 | 122.44201 | 8815 ft | 280 kts | 172° |
| 2026-04-14 10:33 | 30.01106 | 122.44700 | 8650 ft | 272 kts | 172° |
| 2026-04-14 10:33 | 29.99288 | 122.45182 | 8517 ft | 264 kts | 172° |
| 2026-04-14 10:33 | 29.97526 | 122.45650 | 8382 ft | 256 kts | 172° |
| 2026-04-14 10:34 | 29.94698 | 122.46401 | 8148 ft | 242 kts | 172° |
| 2026-04-14 10:34 | 29.93064 | 122.46707 | 7928 ft | 235 kts | 181° |
| 2026-04-14 10:34 | 29.91437 | 122.46840 | 7635 ft | 234 kts | 180° |
| 2026-04-14 10:35 | 29.89839 | 122.46988 | 7362 ft | 233 kts | 180° |
| 2026-04-14 10:35 | 29.88225 | 122.47146 | 7085 ft | 233 kts | 179° |
| 2026-04-14 10:35 | 29.86612 | 122.47311 | 6813 ft | 233 kts | 179° |
| 2026-04-14 10:35 | 29.85001 | 122.47480 | 6533 ft | 232 kts | 178° |
| 2026-04-14 10:36 | 29.83395 | 122.47650 | 6247 ft | 232 kts | 178° |
| 2026-04-14 10:36 | 29.81790 | 122.47822 | 5949 ft | 231 kts | 178° |
| 2026-04-14 10:36 | 29.80188 | 122.47994 | 5661 ft | 231 kts | 178° |
| 2026-04-14 10:36 | 29.78595 | 122.48166 | 5383 ft | 230 kts | 178° |
| 2026-04-14 10:37 | 29.77005 | 122.48338 | 5104 ft | 229 kts | 178° |
| 2026-04-14 10:37 | 29.75431 | 122.48329 | 4799 ft | 224 kts | 198° |
| 2026-04-14 10:37 | 29.74128 | 122.47452 | 4488 ft | 217 kts | 230° |
| 2026-04-14 10:37 | 29.73426 | 122.45940 | 4153 ft | 217 kts | 257° |
| 2026-04-14 10:38 | 29.73219 | 122.44217 | 3853 ft | 217 kts | 263° |
| 2026-04-14 10:38 | 29.73049 | 122.42502 | 3649 ft | 213 kts | 263° |
| 2026-04-14 10:38 | 29.72991 | 122.40823 | 3462 ft | 207 kts | 279° |
| 2026-04-14 10:38 | 29.73595 | 122.39371 | 3306 ft | 200 kts | 312° |
| 2026-04-14 10:39 | 29.74740 | 122.38541 | 3165 ft | 193 kts | 339° |
| 2026-04-14 10:39 | 29.76029 | 122.38173 | 3023 ft | 191 kts | 349° |
| 2026-04-14 10:39 | 29.77345 | 122.37977 | 2844 ft | 190 kts | 352° |
| 2026-04-14 10:39 | 29.78659 | 122.37829 | 2644 ft | 189 kts | 353° |
| 2026-04-14 10:40 | 29.79962 | 122.37696 | 2432 ft | 186 kts | 354° |
| 2026-04-14 10:40 | 29.81238 | 122.37566 | 2211 ft | 183 kts | 354° |
| 2026-04-14 10:40 | 29.82471 | 122.37442 | 1982 ft | 171 kts | 354° |
| 2026-04-14 10:40 | 29.83616 | 122.37327 | 1750 ft | 161 kts | 355° |
| 2026-04-14 10:41 | 29.84697 | 122.37213 | 1573 ft | 154 kts | 355° |
| 2026-04-14 10:41 | 29.85742 | 122.37111 | 1354 ft | 147 kts | 355° |
| 2026-04-14 10:41 | 29.86753 | 122.37011 | 1165 ft | 145 kts | 355° |
| 2026-04-14 10:41 | 29.87759 | 122.36908 | 939 ft | 145 kts | 354° |
| 2026-04-14 10:42 | 29.88756 | 122.36760 | 769 ft | 145 kts | 352° |
| 2026-04-14 10:42 | 29.89761 | 122.36617 | 590 ft | 146 kts | 355° |
| 2026-04-14 10:42 | 29.90766 | 122.36510 | 381 ft | 144 kts | 355° |
| 2026-04-14 10:42 | 29.91758 | 122.36397 | 163 ft | 142 kts | 354° |
| 2026-04-14 10:43 | 29.92720 | 122.36294 | 23 ft | 131 kts | 354° |
| 2026-04-14 10:43 | 29.93450 | 122.36219 | 17 ft | 71 kts | 355° |
| 2026-04-14 10:43 | 29.93772 | 122.36185 | 19 ft | 31 kts | 354° |
| 2026-04-14 10:43 | 29.93826 | 122.36069 | 19 ft | 14 kts | 263° |
| 2026-04-14 10:44 | 29.93817 | 122.35956 | 19 ft | 12 kts | 263° |
| 2026-04-14 10:44 | 29.93760 | 122.35912 | 19 ft | 10 kts | 174° |
| 2026-04-14 10:44 | 29.93685 | 122.35921 | 18 ft | 12 kts | 174° |
| 2026-04-14 10:44 | 29.93603 | 122.35929 | 21 ft | 10 kts | 179° |
| 2026-04-14 10:45 | 29.93570 | 122.35883 | 18 ft | 1 kts | 268° |
| 2026-04-14 10:45 | 29.93570 | 122.35882 | 18 ft | 1 kts | 268° |
| 2026-04-14 10:46 | 29.93569 | 122.35866 | 17 ft | 4 kts | 266° |